Time;durP1;ratioP1;P1;durP2;ratioP2;P2;SDS_P1;SDS_P2;PMS_P1;PMS_P2;Temp;Humidity;BMP_temperature;BMP_pressure;BME280_temperature;BME280_humidity;BME280_pressure;Samples;Min_cycle;Max_cycle;Signal;HPM_P1;HPM_P2
2022/11/03 00:01:39;;;;;;;12.07;3.05;;;11.10;99.90;;;;;;5114490;27;20559;-82
2022/11/03 00:04:07;;;;;;;11.65;3.42;;;11.10;99.90;;;;;;5125273;27;20051;-82
2022/11/03 00:06:33;;;;;;;14.90;3.25;;;11.10;99.90;;;;;;5127878;27;20078;-82
2022/11/03 00:09:04;;;;;;;13.80;3.30;;;11.10;99.90;;;;;;5097696;27;20032;-82
2022/11/03 00:11:33;;;;;;;13.18;3.63;;;11.10;99.90;;;;;;5111046;27;20043;-83
2022/11/03 00:14:02;;;;;;;13.30;3.20;;;11.00;99.90;;;;;;5089825;27;20035;-82
2022/11/03 00:16:29;;;;;;;12.45;2.90;;;11.10;99.90;;;;;;5109396;27;20047;-81
2022/11/03 00:18:54;;;;;;;14.38;3.45;;;11.10;99.90;;;;;;5115545;27;20042;-82
2022/11/03 00:21:20;;;;;;;12.52;2.88;;;11.10;99.90;;;;;;5094845;27;20043;-84
2022/11/03 00:23:46;;;;;;;15.75;3.92;;;11.10;99.90;;;;;;5105089;27;20115;-81
2022/11/03 00:26:13;;;;;;;14.85;3.45;;;11.10;99.90;;;;;;5131737;27;20047;-84
2022/11/03 00:28:41;;;;;;;11.65;3.17;;;11.00;99.90;;;;;;5121571;27;20050;-82
2022/11/03 00:31:24;;;;;;;11.05;2.75;;;11.00;99.90;;;;;;5126612;27;20096;-82
2022/11/03 00:33:50;;;;;;;13.10;3.45;;;11.10;99.90;;;;;;5155529;27;20050;-81
2022/11/03 00:36:22;;;;;;;13.77;3.58;;;11.00;99.90;;;;;;5115525;27;20043;-80
2022/11/03 00:38:48;;;;;;;11.98;3.35;;;11.10;99.90;;;;;;5107498;27;20054;-82
2022/11/03 00:41:15;;;;;;;11.20;3.38;;;11.10;99.90;;;;;;5112923;27;20559;-80
2022/11/03 00:43:41;;;;;;;12.55;2.95;;;11.10;99.90;;;;;;5137425;27;20075;-80
2022/11/03 00:46:08;;;;;;;13.93;3.30;;;11.00;99.90;;;;;;5110552;27;20043;-79
2022/11/03 00:48:34;;;;;;;15.00;3.65;;;11.00;99.90;;;;;;5118504;27;20047;-80
2022/11/03 00:51:05;;;;;;;12.93;3.92;;;11.00;99.90;;;;;;5091663;27;20074;-81
2022/11/03 00:53:33;;;;;;;11.48;3.17;;;11.00;99.90;;;;;;5109122;27;20122;-79
2022/11/03 00:56:03;;;;;;;12.85;2.75;;;11.00;99.90;;;;;;5117013;27;20051;-81
2022/11/03 00:58:29;;;;;;;13.32;3.40;;;11.00;99.90;;;;;;5089440;27;20130;-81
2022/11/03 01:01:04;;;;;;;11.15;3.40;;;10.90;99.90;;;;;;5113631;27;20183;-81
2022/11/03 01:03:32;;;;;;;17.95;3.67;;;10.90;99.90;;;;;;5158293;27;20039;-80
2022/11/03 01:08:51;;;;;;;14.80;3.45;;;10.90;99.90;;;;;;5127081;27;20047;-82
2022/11/03 01:14:05;;;;;;;14.43;3.20;;;10.90;99.90;;;;;;5126147;27;20042;-80
2022/11/03 01:16:31;;;;;;;11.10;2.47;;;10.90;99.90;;;;;;5111656;27;20073;-81
2022/11/03 01:18:57;;;;;;;12.68;3.28;;;10.90;99.90;;;;;;5137178;27;20375;-80
2022/11/03 01:21:23;;;;;;;16.27;3.33;;;10.90;99.90;;;;;;5068953;27;20041;-81
2022/11/03 01:23:49;;;;;;;13.13;3.13;;;10.90;99.90;;;;;;5105610;27;20053;-87
2022/11/03 01:26:15;;;;;;;15.30;3.53;;;10.90;99.90;;;;;;5117696;27;20038;-83
2022/11/03 01:28:44;;;;;;;12.60;2.97;;;10.90;99.90;;;;;;5093001;27;20511;-83
2022/11/03 01:31:11;;;;;;;12.73;3.53;;;10.90;99.90;;;;;;5129973;27;20035;-83
2022/11/03 01:33:38;;;;;;;15.95;3.38;;;10.80;99.90;;;;;;5105716;27;20043;-82
2022/11/03 01:36:04;;;;;;;11.20;3.10;;;10.80;99.90;;;;;;5091122;27;20570;-83
2022/11/03 01:38:35;;;;;;;14.05;3.38;;;10.70;99.90;;;;;;5113546;27;20046;-82
2022/11/03 01:41:02;;;;;;;12.45;2.88;;;10.70;99.90;;;;;;5128041;27;20069;-83
2022/11/03 01:43:31;;;;;;;14.00;3.53;;;10.70;99.90;;;;;;5138154;27;20118;-82
2022/11/03 01:46:17;;;;;;;14.95;4.13;;;10.60;99.90;;;;;;5101826;27;20027;-85
2022/11/03 01:49:07;;;;;;;13.32;3.22;;;10.60;99.90;;;;;;5119876;27;20055;-83
2022/11/03 01:51:37;;;;;;;11.75;3.38;;;10.60;99.90;;;;;;5108285;27;20054;-83
2022/11/03 01:54:07;;;;;;;14.13;3.75;;;10.50;99.90;;;;;;5130142;27;20035;-82
2022/11/03 01:56:37;;;;;;;11.40;3.25;;;10.60;99.90;;;;;;5106638;27;20047;-81
2022/11/03 01:59:03;;;;;;;14.00;3.25;;;10.60;99.90;;;;;;5116194;27;20058;-83
2022/11/03 02:01:30;;;;;;;14.32;3.20;;;10.50;99.90;;;;;;5113913;27;20030;-82
2022/11/03 02:04:03;;;;;;;16.52;3.75;;;10.50;99.90;;;;;;5093011;27;20046;-82
2022/11/03 02:06:29;;;;;;;13.85;3.38;;;10.50;99.90;;;;;;5124615;27;20051;-82
2022/11/03 02:09:07;;;;;;;15.48;3.50;;;10.60;99.90;;;;;;5113698;27;20100;-84
2022/11/03 02:14:19;;;;;;;16.00;3.70;;;10.60;99.90;;;;;;5129270;27;20523;-83
2022/11/03 02:16:50;;;;;;;14.30;3.53;;;10.60;99.90;;;;;;5090835;27;20047;-84
2022/11/03 02:19:35;;;;;;;15.88;3.78;;;10.60;99.90;;;;;;5104309;27;20444;-81
2022/11/03 02:22:38;;;;;;;11.88;3.78;;;10.60;99.90;;;;;;5102817;27;20122;-82
2022/11/03 02:25:16;;;;;;;15.32;3.13;;;10.60;99.90;;;;;;5062309;27;20405;-81
2022/11/03 02:27:43;;;;;;;14.45;3.05;;;10.60;99.90;;;;;;5110873;27;20122;-82
2022/11/03 02:30:09;;;;;;;13.43;3.35;;;10.70;99.90;;;;;;5135032;27;20746;-81
2022/11/03 02:32:41;;;;;;;12.75;2.97;;;10.70;99.90;;;;;;5127080;27;20126;-80
2022/11/03 02:35:21;;;;;;;14.43;3.45;;;10.70;99.90;;;;;;5135840;27;20101;-81
2022/11/03 02:37:52;;;;;;;15.68;3.35;;;10.80;99.90;;;;;;5098705;27;20454;-81
2022/11/03 02:40:41;;;;;;;15.57;4.05;;;10.70;99.90;;;;;;5137808;27;20061;-81
2022/11/03 02:43:09;;;;;;;12.85;3.30;;;10.80;99.90;;;;;;5093132;27;20504;-81
2022/11/03 02:45:36;;;;;;;12.77;3.72;;;10.80;99.90;;;;;;5078779;27;20046;-81
2022/11/03 02:48:03;;;;;;;12.23;3.20;;;10.80;99.90;;;;;;5086741;27;20355;-81
2022/11/03 02:50:31;;;;;;;11.00;2.92;;;10.80;99.90;;;;;;5070850;27;20036;-82
2022/11/03 02:52:57;;;;;;;12.98;3.83;;;10.80;99.90;;;;;;5125305;27;20557;-81
2022/11/03 02:55:26;;;;;;;15.13;3.67;;;10.80;99.90;;;;;;5107811;27;20046;-83
2022/11/03 02:58:36;;;;;;;17.67;3.28;;;10.80;99.90;;;;;;5121943;27;20892;-82
2022/11/03 03:01:24;;;;;;;12.57;3.47;;;10.80;99.90;;;;;;5042763;28;20123;-83
2022/11/03 03:03:55;;;;;;;15.23;3.72;;;10.80;99.90;;;;;;5100898;27;20051;-83
2022/11/03 03:06:37;;;;;;;15.93;3.63;;;10.80;99.90;;;;;;5106734;27;20038;-83
2022/11/03 03:09:09;;;;;;;13.73;3.25;;;10.90;99.90;;;;;;5106817;27;20035;-80
2022/11/03 03:11:40;;;;;;;13.55;3.65;;;10.90;99.90;;;;;;5104677;27;20048;-82
2022/11/03 03:14:28;;;;;;;14.65;3.55;;;10.90;99.90;;;;;;5104084;27;20236;-82
2022/11/03 03:17:04;;;;;;;10.90;2.97;;;10.90;99.90;;;;;;5098389;28;20040;-82
2022/11/03 03:20:01;;;;;;;12.63;3.50;;;10.90;99.90;;;;;;5136828;27;20036;-81
2022/11/03 03:22:29;;;;;;;12.05;3.17;;;10.90;99.90;;;;;;5108994;27;20081;-80
2022/11/03 03:24:59;;;;;;;13.80;3.63;;;10.90;99.90;;;;;;5126170;27;20403;-81
2022/11/03 03:27:28;;;;;;;15.10;3.63;;;10.90;99.90;;;;;;5108278;27;20050;-81
2022/11/03 03:30:06;;;;;;;13.53;3.47;;;10.90;99.90;;;;;;5128175;27;20368;-80
2022/11/03 03:32:37;;;;;;;15.85;3.35;;;10.80;99.90;;;;;;5116614;27;20039;-82
2022/11/03 03:35:06;;;;;;;13.48;3.13;;;10.80;99.90;;;;;;5114835;27;20065;-85
2022/11/03 03:37:38;;;;;;;12.13;3.43;;;10.80;99.90;;;;;;5119051;27;20051;-81
2022/11/03 03:40:09;;;;;;;12.00;3.45;;;10.80;99.90;;;;;;5111441;27;20445;-83
2022/11/03 03:42:37;;;;;;;12.43;3.10;;;10.80;99.90;;;;;;5133801;27;20448;-84
2022/11/03 03:45:04;;;;;;;10.10;2.97;;;10.80;99.90;;;;;;5115425;27;20513;-83
2022/11/03 03:47:33;;;;;;;16.30;4.20;;;10.80;99.90;;;;;;5133648;27;20519;-81
2022/11/03 03:50:00;;;;;;;10.90;3.03;;;10.80;99.90;;;;;;5125702;27;20405;-81
2022/11/03 03:52:28;;;;;;;12.85;3.47;;;10.80;99.90;;;;;;5115165;27;20040;-83
2022/11/03 03:54:55;;;;;;;11.40;3.03;;;10.80;99.90;;;;;;5102567;27;20145;-82
2022/11/03 03:57:26;;;;;;;13.32;3.83;;;10.80;99.90;;;;;;5093993;27;20047;-82
2022/11/03 03:59:51;;;;;;;14.52;4.05;;;10.80;99.90;;;;;;5096605;27;20040;-82
2022/11/03 04:02:17;;;;;;;11.32;3.78;;;10.80;99.90;;;;;;5085177;28;20469;-83
2022/11/03 04:04:43;;;;;;;9.93;3.28;;;10.80;99.90;;;;;;5104132;28;20044;-82
2022/11/03 04:09:53;;;;;;;13.68;3.92;;;10.80;99.90;;;;;;5095247;27;20055;-82
2022/11/03 04:23:18;;;;;;;12.75;3.70;;;10.80;99.90;;;;;;5142794;27;20065;-84
2022/11/03 04:25:49;;;;;;;10.27;2.70;;;10.80;99.90;;;;;;5147972;27;20045;-80
2022/11/03 04:28:15;;;;;;;14.95;3.47;;;10.80;99.90;;;;;;5087553;28;20055;-83
2022/11/03 04:30:41;;;;;;;13.18;3.63;;;10.80;99.90;;;;;;5106898;27;20590;-82
2022/11/03 04:33:15;;;;;;;12.30;3.50;;;10.80;99.90;;;;;;5086000;27;20073;-80
2022/11/03 04:35:43;;;;;;;12.48;3.22;;;10.90;99.90;;;;;;5098084;27;20048;-84
2022/11/03 04:38:15;;;;;;;13.48;3.47;;;10.90;99.90;;;;;;5115945;27;20507;-82
2022/11/03 04:40:43;;;;;;;13.68;3.40;;;10.90;99.90;;;;;;5105871;27;20131;-83
2022/11/03 04:43:16;;;;;;;14.68;3.53;;;10.90;99.90;;;;;;5122010;27;20552;-80
2022/11/03 04:45:44;;;;;;;12.25;3.25;;;10.90;99.90;;;;;;5112414;27;20039;-82
2022/11/03 04:48:15;;;;;;;13.95;3.70;;;10.90;99.90;;;;;;5087585;28;20059;-84
2022/11/03 04:50:42;;;;;;;11.98;2.95;;;11.00;99.90;;;;;;5107919;27;20047;-80
2022/11/03 04:53:14;;;;;;;12.75;3.00;;;11.00;99.90;;;;;;5130697;27;20039;-82
2022/11/03 04:55:41;;;;;;;11.38;2.67;;;11.00;99.90;;;;;;5131938;27;20047;-82
2022/11/03 04:58:20;;;;;;;12.88;3.20;;;11.00;99.90;;;;;;5112671;27;20525;-83
2022/11/03 05:00:48;;;;;;;12.55;3.35;;;11.00;99.90;;;;;;5098330;27;20257;-84
2022/11/03 05:03:20;;;;;;;10.52;2.83;;;11.00;99.90;;;;;;5106410;27;20651;-82
2022/11/03 05:05:46;;;;;;;14.82;3.53;;;11.00;99.90;;;;;;5101360;27;20049;-81
2022/11/03 05:08:12;;;;;;;10.85;2.90;;;11.00;99.90;;;;;;5136452;27;20051;-80
2022/11/03 05:10:38;;;;;;;12.48;3.30;;;11.00;99.90;;;;;;5086305;27;20043;-79
2022/11/03 05:13:14;;;;;;;14.38;3.20;;;11.00;99.90;;;;;;5113994;27;20039;-81
2022/11/03 05:15:43;;;;;;;11.82;3.05;;;11.00;99.90;;;;;;5092641;27;20043;-80
2022/11/03 05:18:31;;;;;;;13.43;3.25;;;11.00;99.90;;;;;;5110494;27;20051;-79
2022/11/03 05:21:01;;;;;;;13.60;3.38;;;11.00;99.90;;;;;;5104109;27;20048;-80
2022/11/03 05:23:30;;;;;;;14.43;3.17;;;11.00;99.90;;;;;;5104877;27;20047;-80
2022/11/03 05:26:00;;;;;;;17.00;4.03;;;11.00;99.90;;;;;;5127381;27;20493;-80
2022/11/03 05:28:32;;;;;;;12.88;3.45;;;11.00;99.90;;;;;;5129268;27;20062;-80
2022/11/03 05:31:01;;;;;;;15.02;3.60;;;10.90;99.90;;;;;;5106218;27;20599;-79
2022/11/03 05:33:32;;;;;;;9.95;3.40;;;10.90;99.90;;;;;;5109871;27;20039;-81
2022/11/03 05:36:02;;;;;;;12.27;3.00;;;10.80;99.90;;;;;;5107617;27;20058;-81
2022/11/03 05:38:32;;;;;;;11.63;3.30;;;10.80;99.90;;;;;;5114143;27;20034;-82
2022/11/03 05:40:59;;;;;;;12.82;3.55;;;10.90;99.90;;;;;;5127510;27;20300;-80
2022/11/03 05:43:27;;;;;;;12.25;3.00;;;10.90;99.90;;;;;;5139899;27;20077;-80
2022/11/03 05:45:57;;;;;;;13.80;4.43;;;10.80;99.90;;;;;;5098245;27;20508;-80
2022/11/03 05:48:32;;;;;;;14.43;3.72;;;10.80;99.90;;;;;;5135980;27;20061;-80
2022/11/03 05:51:09;;;;;;;12.65;3.60;;;10.80;99.90;;;;;;5112200;27;20031;-80
2022/11/03 05:53:38;;;;;;;11.32;3.55;;;10.80;99.90;;;;;;5129665;27;20042;-80
2022/11/03 05:56:05;;;;;;;12.63;3.35;;;10.80;99.90;;;;;;5106704;27;20051;-80
2022/11/03 05:58:37;;;;;;;11.85;3.47;;;10.80;99.90;;;;;;5089743;27;20050;-81
2022/11/03 06:01:19;;;;;;;14.88;2.85;;;10.80;99.90;;;;;;5108432;27;20497;-80
2022/11/03 06:03:46;;;;;;;11.48;3.08;;;10.80;99.90;;;;;;5127865;27;20863;-80
2022/11/03 06:06:21;;;;;;;13.60;3.67;;;10.80;99.90;;;;;;5064875;27;20044;-80
2022/11/03 06:08:47;;;;;;;11.20;3.08;;;10.80;99.90;;;;;;5155567;27;20055;-81
2022/11/03 06:11:27;;;;;;;13.20;3.35;;;10.80;99.90;;;;;;5102825;27;20048;-81
2022/11/03 06:13:56;;;;;;;14.75;3.75;;;10.80;99.90;;;;;;5139438;27;20062;-80
2022/11/03 06:16:48;;;;;;;11.10;2.97;;;10.80;99.90;;;;;;5103524;27;20447;-81
2022/11/03 06:19:22;;;;;;;12.10;3.28;;;10.90;99.90;;;;;;5115830;27;20054;-80
2022/11/03 06:21:52;;;;;;;13.32;3.13;;;10.80;99.90;;;;;;5135187;27;20143;-79
2022/11/03 06:24:21;;;;;;;13.48;3.95;;;10.80;99.90;;;;;;5113902;27;20047;-81
2022/11/03 06:26:50;;;;;;;12.15;2.92;;;10.80;99.90;;;;;;5126098;27;20062;-80
2022/11/03 06:29:19;;;;;;;12.32;3.60;;;10.80;99.90;;;;;;5111822;27;20561;-79
2022/11/03 06:31:48;;;;;;;14.70;3.92;;;10.80;99.90;;;;;;5146986;27;20040;-79
2022/11/03 06:34:38;;;;;;;12.75;3.47;;;10.80;99.90;;;;;;5117283;27;20035;-84
2022/11/03 06:37:18;;;;;;;9.95;3.13;;;10.90;99.90;;;;;;5104376;27;20602;-82
2022/11/03 06:39:44;;;;;;;12.60;3.63;;;10.80;99.90;;;;;;5126995;27;20073;-82
2022/11/03 06:42:12;;;;;;;12.20;3.28;;;10.90;99.90;;;;;;5115312;27;20054;-83
2022/11/03 06:44:44;;;;;;;13.98;4.18;;;10.90;99.90;;;;;;5125824;27;20501;-81
2022/11/03 06:47:23;;;;;;;13.27;3.88;;;10.90;99.90;;;;;;5118454;27;20043;-82
2022/11/03 06:49:55;;;;;;;12.35;4.47;;;10.90;99.90;;;;;;5117336;27;20552;-82
2022/11/03 06:52:29;;;;;;;10.85;3.42;;;10.90;99.90;;;;;;5134766;27;20039;-83
2022/11/03 06:55:11;;;;;;;11.65;3.70;;;10.90;99.90;;;;;;5133345;27;20081;-83
2022/11/03 06:57:39;;;;;;;10.45;3.13;;;10.90;99.90;;;;;;5107076;27;20161;-83
2022/11/03 07:00:36;;;;;;;11.50;4.00;;;11.00;99.90;;;;;;5111649;27;20042;-86
2022/11/03 07:03:12;;;;;;;15.38;3.90;;;11.00;99.90;;;;;;5094432;27;20064;-82
2022/11/03 07:05:38;;;;;;;15.60;3.58;;;11.00;99.90;;;;;;5119133;27;20561;-84
2022/11/03 07:08:33;;;;;;;14.15;4.05;;;11.00;99.90;;;;;;5088974;27;20068;-83
2022/11/03 07:11:01;;;;;;;11.02;3.40;;;11.00;99.90;;;;;;5121441;27;20081;-87
2022/11/03 07:13:30;;;;;;;13.27;4.05;;;11.00;99.90;;;;;;5116277;27;20135;-83
2022/11/03 07:15:56;;;;;;;14.68;4.32;;;11.00;99.90;;;;;;5131862;27;20447;-83
2022/11/03 07:18:34;;;;;;;10.82;3.67;;;11.00;99.90;;;;;;5107944;27;20035;-85
2022/11/03 07:21:06;;;;;;;16.13;4.15;;;11.00;99.90;;;;;;5106604;27;20075;-83
2022/11/03 07:23:32;;;;;;;13.32;3.70;;;11.00;99.90;;;;;;5113446;27;20112;-81
2022/11/03 07:26:01;;;;;;;12.02;3.90;;;11.10;99.90;;;;;;5100563;27;20051;-83
2022/11/03 07:28:34;;;;;;;11.18;3.88;;;11.10;99.90;;;;;;5103812;27;20538;-79
2022/11/03 07:31:09;;;;;;;12.35;3.80;;;11.20;99.90;;;;;;5123690;27;20038;-81
2022/11/03 07:33:34;;;;;;;14.18;3.55;;;11.20;99.90;;;;;;5126619;27;20033;-79
2022/11/03 07:36:00;;;;;;;12.40;3.92;;;11.20;99.90;;;;;;5088930;27;20039;-82
2022/11/03 07:38:28;;;;;;;11.32;3.72;;;11.20;99.90;;;;;;5124179;27;20066;-81
2022/11/03 07:41:01;;;;;;;14.55;3.78;;;11.30;99.90;;;;;;5107405;27;20035;-81
2022/11/03 07:43:29;;;;;;;;;;;11.30;99.90;;;;;;5109549;27;20092;-80
2022/11/03 07:45:57;;;;;;;11.73;3.72;;;11.30;99.90;;;;;;5119958;27;19919;-81
2022/11/03 07:48:38;;;;;;;11.30;3.88;;;11.40;99.90;;;;;;5125008;27;20039;-81
2022/11/03 07:51:31;;;;;;;11.70;3.85;;;11.40;99.90;;;;;;5110883;27;20031;-81
2022/11/03 07:54:14;;;;;;;10.60;3.40;;;11.50;99.90;;;;;;5114313;27;20058;-80
2022/11/03 07:56:47;;;;;;;14.93;4.20;;;11.50;99.90;;;;;;5123803;27;20056;-81
2022/11/03 07:59:25;;;;;;;14.52;3.95;;;11.60;99.90;;;;;;5127015;27;20046;-81
2022/11/03 08:01:56;;;;;;;14.15;4.38;;;11.60;99.90;;;;;;5126027;27;20047;-81
2022/11/03 08:04:30;;;;;;;13.55;3.72;;;11.70;99.90;;;;;;5118774;27;20039;-82
2022/11/03 08:06:56;;;;;;;13.60;3.63;;;11.70;99.90;;;;;;5128873;27;20047;-81
2022/11/03 08:09:22;;;;;;;13.13;4.32;;;11.80;99.90;;;;;;5134191;27;20142;-82
2022/11/03 08:11:48;;;;;;;10.93;3.65;;;11.90;99.90;;;;;;5104350;27;20074;-81
2022/11/03 08:14:14;;;;;;;12.93;3.85;;;11.90;99.90;;;;;;5124855;27;20478;-81
2022/11/03 08:16:40;;;;;;;10.95;3.83;;;11.90;99.90;;;;;;5110934;27;20045;-82
2022/11/03 08:19:06;;;;;;;13.48;4.63;;;11.90;99.90;;;;;;5087495;27;20043;-81
2022/11/03 08:21:32;;;;;;;13.02;4.07;;;12.00;99.90;;;;;;5122638;27;20049;-80
2022/11/03 08:24:01;;;;;;;13.60;4.55;;;12.00;99.90;;;;;;5115171;27;20051;-80
2022/11/03 08:26:27;;;;;;;12.07;4.43;;;12.10;99.90;;;;;;5127159;27;20130;-81
2022/11/03 08:28:53;;;;;;;17.45;4.82;;;12.10;99.90;;;;;;5113731;27;20584;-81
2022/11/03 08:31:18;;;;;;;12.68;3.70;;;12.10;99.90;;;;;;5123934;27;20045;-79
2022/11/03 08:33:45;;;;;;;14.77;4.65;;;12.10;99.90;;;;;;5110495;27;20042;-80
2022/11/03 08:36:14;;;;;;;12.25;3.90;;;12.20;99.90;;;;;;5122357;27;20046;-81
2022/11/03 08:38:39;;;;;;;12.23;4.10;;;12.20;99.90;;;;;;5136311;27;20043;-82
2022/11/03 08:41:05;;;;;;;14.93;4.15;;;12.20;99.90;;;;;;5104694;27;20043;-79
2022/11/03 08:43:31;;;;;;;10.38;3.67;;;12.20;99.90;;;;;;5105857;27;20043;-81
2022/11/03 08:45:56;;;;;;;12.32;3.90;;;12.30;99.90;;;;;;5119268;27;20059;-81
2022/11/03 08:48:31;;;;;;;10.43;4.00;;;12.30;99.90;;;;;;5107515;27;20406;-79
2022/11/03 08:50:59;;;;;;;12.05;3.97;;;12.30;99.90;;;;;;5105416;27;20066;-80
2022/11/03 08:53:26;;;;;;;15.15;4.22;;;12.40;99.90;;;;;;5092414;27;20031;-81
2022/11/03 08:55:53;;;;;;;13.10;3.53;;;12.40;99.90;;;;;;5115385;27;20093;-80
2022/11/03 08:58:20;;;;;;;16.15;4.68;;;12.40;99.90;;;;;;5113564;27;20053;-81
2022/11/03 09:00:47;;;;;;;14.23;4.18;;;12.50;99.90;;;;;;5127167;27;20058;-82
2022/11/03 09:03:16;;;;;;;14.88;4.32;;;12.50;99.90;;;;;;5114847;27;20039;-81
2022/11/03 09:05:42;;;;;;;11.90;3.92;;;12.60;99.90;;;;;;5101854;27;20524;-79
2022/11/03 09:08:08;;;;;;;10.23;3.50;;;12.60;99.90;;;;;;5128581;27;20387;-80
2022/11/03 09:10:36;;;;;;;13.40;4.28;;;12.70;99.90;;;;;;5110696;27;20035;-82
2022/11/03 09:13:04;;;;;;;10.35;3.63;;;12.70;99.90;;;;;;5143115;27;20046;-81
2022/11/03 09:15:33;;;;;;;12.32;3.78;;;12.70;99.90;;;;;;5116236;27;20773;-79
2022/11/03 09:18:01;;;;;;;11.02;3.40;;;12.80;99.90;;;;;;5127610;27;20046;-83
2022/11/03 09:20:27;;;;;;;12.07;3.90;;;12.80;99.90;;;;;;5110449;27;20034;-80
2022/11/03 09:22:53;;;;;;;12.45;4.15;;;12.90;99.90;;;;;;5108982;27;20051;-81
2022/11/03 09:25:19;;;;;;;14.80;4.68;;;12.90;99.90;;;;;;5080038;27;20050;-79
2022/11/03 09:27:45;;;;;;;13.43;4.28;;;13.00;99.90;;;;;;5099832;27;20047;-80
2022/11/03 09:30:11;;;;;;;13.55;4.35;;;13.00;99.90;;;;;;5157696;27;20120;-81
2022/11/03 09:32:37;;;;;;;12.40;3.70;;;13.10;99.90;;;;;;5112463;27;20053;-80
2022/11/03 09:35:05;;;;;;;13.02;4.00;;;13.10;99.90;;;;;;5114398;27;20042;-81
2022/11/03 09:37:30;;;;;;;12.50;3.80;;;13.20;99.90;;;;;;5123971;27;20035;-80
2022/11/03 09:39:57;;;;;;;10.77;3.40;;;13.30;99.90;;;;;;5125169;27;20069;-82
2022/11/03 09:42:24;;;;;;;14.23;4.65;;;13.30;99.90;;;;;;5122092;27;20043;-81
2022/11/03 09:44:52;;;;;;;9.65;3.42;;;13.40;99.90;;;;;;5117845;27;20137;-81
2022/11/03 09:47:32;;;;;;;13.77;3.88;;;13.50;99.90;;;;;;5129601;27;20070;-81
2022/11/03 09:49:59;;;;;;;14.20;3.85;;;13.60;99.90;;;;;;5116831;27;20056;-81
2022/11/03 09:52:25;;;;;;;15.23;3.80;;;13.70;99.90;;;;;;5136600;27;20094;-82
2022/11/03 09:54:54;;;;;;;12.05;3.40;;;13.80;99.90;;;;;;5110475;27;20039;-80
2022/11/03 09:57:20;;;;;;;12.00;4.00;;;13.80;99.90;;;;;;5097348;27;20051;-81
2022/11/03 09:59:47;;;;;;;14.73;3.58;;;13.90;99.90;;;;;;5100264;27;20055;-81
2022/11/03 10:02:35;;;;;;;10.40;3.58;;;13.90;99.90;;;;;;5103050;27;20520;-79
2022/11/03 10:05:04;;;;;;;10.60;3.85;;;14.00;99.90;;;;;;5119378;27;20046;-81
2022/11/03 10:07:31;;;;;;;11.45;3.58;;;14.00;99.90;;;;;;5125816;27;20070;-81
2022/11/03 10:10:01;;;;;;;10.05;3.20;;;14.00;99.90;;;;;;5097431;27;20054;-81
2022/11/03 10:12:31;;;;;;;13.23;3.88;;;14.00;99.90;;;;;;5122476;27;20043;-81
2022/11/03 10:15:01;;;;;;;10.60;3.28;;;14.00;99.90;;;;;;5127674;27;20095;-82
2022/11/03 10:17:29;;;;;;;12.23;3.38;;;14.10;99.90;;;;;;5117438;27;20095;-82
2022/11/03 10:19:57;;;;;;;11.40;3.65;;;14.10;99.90;;;;;;5085042;27;20100;-81
2022/11/03 10:22:23;;;;;;;12.70;3.22;;;14.20;99.90;;;;;;5131083;27;20031;-80
2022/11/03 10:25:28;;;;;;;9.45;3.17;;;14.30;99.90;;;;;;5092818;27;20047;-81
2022/11/03 10:28:20;;;;;;;10.65;3.28;;;14.50;99.90;;;;;;5124028;27;20125;-81
2022/11/03 10:30:56;;;;;;;9.30;3.33;;;14.60;99.90;;;;;;5142537;27;20541;-81
2022/11/03 10:33:36;;;;;;;9.70;3.40;;;14.70;99.90;;;;;;5122851;27;20453;-81
2022/11/03 10:36:23;;;;;;;10.95;3.25;;;14.80;99.90;;;;;;5131925;27;20071;-82
2022/11/03 10:38:49;;;;;;;10.13;3.10;;;14.90;99.90;;;;;;5125763;27;20047;-80
2022/11/03 10:41:20;;;;;;;11.40;3.22;;;14.90;99.90;;;;;;5125686;27;20035;-80
2022/11/03 10:44:18;;;;;;;11.15;2.75;;;14.90;99.90;;;;;;5134411;27;20062;-80
2022/11/03 10:47:02;;;;;;;11.38;3.20;;;14.90;99.90;;;;;;5110060;27;20102;-80
2022/11/03 10:49:34;;;;;;;9.55;2.85;;;14.90;99.90;;;;;;5125920;27;20756;-81
2022/11/03 10:52:25;;;;;;;10.43;3.10;;;14.90;99.90;;;;;;5107309;27;20043;-81
2022/11/03 10:54:55;;;;;;;13.10;3.30;;;14.90;99.90;;;;;;5123170;27;20046;-80
2022/11/03 10:57:22;;;;;;;9.70;3.10;;;14.90;99.90;;;;;;5141478;27;20082;-81
2022/11/03 10:59:50;;;;;;;9.77;3.17;;;14.90;99.90;;;;;;5124528;27;20078;-81
2022/11/03 11:02:25;;;;;;;9.00;2.97;;;14.90;99.90;;;;;;5128806;27;20039;-83
2022/11/03 11:05:02;;;;;;;9.10;2.83;;;14.90;99.90;;;;;;5116487;27;20048;-79
2022/11/03 11:07:40;;;;;;;10.75;3.00;;;14.90;99.90;;;;;;5125492;27;20069;-82
2022/11/03 11:10:26;;;;;;;10.68;3.80;;;15.00;99.90;;;;;;5122203;27;20497;-81
2022/11/03 11:13:13;;;;;;;11.35;3.40;;;15.10;99.90;;;;;;5107990;27;20035;-81
2022/11/03 11:15:52;;;;;;;9.10;3.08;;;15.20;99.90;;;;;;5109312;27;20035;-82
2022/11/03 11:18:27;;;;;;;10.93;3.03;;;15.40;99.90;;;;;;5119178;27;20098;-80
2022/11/03 11:20:58;;;;;;;9.48;3.20;;;15.50;99.90;;;;;;5106370;27;20108;-81
2022/11/03 11:23:26;;;;;;;11.15;3.25;;;15.50;99.90;;;;;;5108840;27;20043;-81
2022/11/03 11:26:08;;;;;;;9.10;2.40;;;15.50;99.90;;;;;;5126287;27;20108;-81
2022/11/03 11:28:40;;;;;;;9.73;2.60;;;15.50;99.90;;;;;;5102570;27;20039;-83
2022/11/03 11:31:31;;;;;;;12.00;3.17;;;15.50;99.90;;;;;;5114057;27;20051;-81
2022/11/03 11:34:09;;;;;;;10.90;3.33;;;15.40;99.90;;;;;;5097305;27;20670;-79
2022/11/03 11:36:40;;;;;;;9.35;2.58;;;15.40;99.90;;;;;;5108028;27;20066;-83
2022/11/03 11:39:30;;;;;;;10.30;2.60;;;15.30;99.90;;;;;;5139459;27;20126;-83
2022/11/03 11:42:09;;;;;;;11.02;2.88;;;15.30;99.90;;;;;;5121134;27;20050;-83
2022/11/03 11:44:51;;;;;;;7.32;2.60;;;15.30;99.90;;;;;;5116854;27;20074;-82
2022/11/03 11:47:42;;;;;;;8.88;2.55;;;15.30;99.90;;;;;;5127797;27;20046;-83
2022/11/03 11:50:08;;;;;;;11.95;2.28;;;15.30;99.90;;;;;;5116724;27;20130;-82
2022/11/03 11:53:00;;;;;;;7.60;3.08;;;15.30;99.90;;;;;;5129236;27;20123;-81
2022/11/03 11:55:31;;;;;;;8.52;2.60;;;15.30;99.90;;;;;;5120540;27;20161;-81
2022/11/03 11:57:59;;;;;;;7.47;2.45;;;15.30;99.90;;;;;;5132483;27;20153;-81
2022/11/03 12:00:34;;;;;;;9.43;2.60;;;15.30;99.90;;;;;;5104508;27;20482;-82
2022/11/03 12:03:05;;;;;;;8.23;2.58;;;15.30;99.90;;;;;;5141008;27;20047;-82
2022/11/03 12:05:34;;;;;;;9.68;2.53;;;15.20;99.90;;;;;;5124769;27;20078;-83
2022/11/03 12:08:01;;;;;;;7.68;2.72;;;15.20;99.90;;;;;;5120509;27;20054;-82
2022/11/03 12:10:31;;;;;;;8.40;2.72;;;15.20;99.90;;;;;;5121762;27;20114;-82
2022/11/03 12:13:01;;;;;;;7.70;2.17;;;15.20;99.90;;;;;;5123677;27;20043;-82
2022/11/03 12:15:56;;;;;;;8.13;2.60;;;15.20;99.90;;;;;;5112187;27;20041;-83
2022/11/03 12:18:42;;;;;;;10.82;2.80;;;15.20;99.90;;;;;;5117862;27;20047;-82
2022/11/03 12:21:12;;;;;;;9.82;2.70;;;15.20;99.90;;;;;;5118497;27;20126;-83
2022/11/03 12:23:44;;;;;;;9.45;2.60;;;15.20;99.90;;;;;;5119156;27;20083;-82
2022/11/03 12:26:13;;;;;;;6.68;2.13;;;15.20;99.90;;;;;;5107300;27;20121;-83
2022/11/03 12:28:39;;;;;;;7.90;2.47;;;15.20;99.90;;;;;;5115249;27;20062;-84
2022/11/03 12:31:05;;;;;;;7.80;2.25;;;15.10;99.90;;;;;;5085701;27;20374;-82
2022/11/03 12:33:37;;;;;;;11.98;3.22;;;15.10;99.90;;;;;;5113537;27;20034;-83
2022/11/03 12:36:03;;;;;;;7.20;2.20;;;15.10;99.90;;;;;;5140283;27;20894;-82
2022/11/03 12:38:32;;;;;;;7.35;2.58;;;15.10;99.90;;;;;;5126538;27;20043;-82
2022/11/03 12:41:19;;;;;;;8.35;2.33;;;15.10;99.90;;;;;;5121483;27;20120;-82
2022/11/03 12:43:43;;;;;;;8.88;2.47;;;15.10;99.90;;;;;;5119378;27;20417;-82
2022/11/03 12:46:10;;;;;;;7.35;2.63;;;15.20;99.90;;;;;;5115845;27;20093;-81
2022/11/03 12:48:36;;;;;;;7.80;2.65;;;15.20;99.90;;;;;;5088551;27;20532;-82
2022/11/03 12:51:02;;;;;;;8.68;2.38;;;15.20;99.90;;;;;;5107708;27;20052;-82
2022/11/03 12:53:31;;;;;;;8.52;2.55;;;15.30;99.90;;;;;;5089901;27;20095;-82
2022/11/03 12:55:56;;;;;;;9.57;2.75;;;15.30;99.90;;;;;;5103234;27;20062;-81
2022/11/03 12:58:22;;;;;;;7.03;2.30;;;15.40;99.90;;;;;;5112804;27;20047;-82
2022/11/03 13:00:48;;;;;;;8.55;2.83;;;15.50;99.90;;;;;;5122599;27;20559;-82
2022/11/03 13:03:14;;;;;;;8.00;2.97;;;15.60;99.90;;;;;;5076297;27;20059;-83
2022/11/03 13:05:39;;;;;;;8.48;2.78;;;15.60;99.90;;;;;;5086734;27;20687;-83
2022/11/03 13:08:05;;;;;;;7.28;2.42;;;15.60;99.90;;;;;;5121234;27;20047;-83
2022/11/03 13:10:30;;;;;;;7.78;2.65;;;15.60;99.90;;;;;;5103841;27;20118;-82
2022/11/03 13:12:56;;;;;;;8.02;2.15;;;15.40;99.90;;;;;;5089399;27;20047;-82
2022/11/03 13:15:22;;;;;;;6.28;2.20;;;15.40;99.90;;;;;;5090649;27;20047;-82
2022/11/03 13:17:48;;;;;;;6.55;1.92;;;15.40;99.90;;;;;;5089973;27;20067;-82
2022/11/03 13:20:14;;;;;;;6.60;2.45;;;15.30;99.90;;;;;;5101423;27;20055;-82
2022/11/03 13:22:40;;;;;;;7.03;2.30;;;15.30;99.90;;;;;;5096971;27;20511;-82